Terminal Aerodrome Forecast
Issued by NWS

Home | Current Version | Previous Version | Text Only | Print | Product List | Glossary On
Versions: 1 2 3 4 5 6 7 8 9 10 11 12 13 14 15 16 17 18 19 20 21 22 23 24
000
FTUS45 KPIH 100532
TAFSUN
TAF
KSUN 100532Z 1006/1106 VRB04KT 1SM -SN OVC004
     FM102000 VRB05KT 4SM -SN OVC008
     FM110100 31008KT P6SM VCSH SCT008 OVC015
      AMD LTD TO CLD VIS AND WIND TIL 101400=

USA.gov is the U.S. government's official web portal to all federal, state and local government web resources and services.